Time;durP1;ratioP1;P1;durP2;ratioP2;P2;SDS_P1;SDS_P2;PMS_P1;PMS_P2;Temp;Humidity;BMP_temperature;BMP_pressure;BME280_temperature;BME280_humidity;BME280_pressure;Samples;Min_cycle;Max_cycle;Signal;HPM_P1;HPM_P2
2021/05/30 00:02:06;;;;;;;14.55;10.18;;;;;;;8.97;85.83;98397.57;1785448;79;20896;-77
2021/05/30 00:04:32;;;;;;;11.65;8.00;;;;;;;9.01;84.64;98396.00;1785632;80;21415;-77
2021/05/30 00:06:58;;;;;;;11.88;9.00;;;;;;;9.00;84.78;98395.72;1754839;80;21663;-77
2021/05/30 00:09:24;;;;;;;14.55;9.48;;;;;;;8.97;84.15;98390.31;1785321;79;20923;-77
2021/05/30 00:11:50;;;;;;;11.30;7.30;;;;;;;9.00;84.02;98393.02;1789536;79;20934;-77
2021/05/30 00:14:17;;;;;;;14.87;8.98;;;;;;;9.05;84.28;98393.84;1800223;78;20888;-77
2021/05/30 00:16:43;;;;;;;13.25;9.13;;;;;;;9.11;84.14;98397.41;1773035;79;20919;-77
2021/05/30 00:19:09;;;;;;;18.67;10.85;;;;;;;9.12;83.74;98389.57;1799810;78;21113;-77
2021/05/30 00:21:35;;;;;;;18.67;10.85;;;;;;;9.10;84.87;98386.86;1799956;79;20851;-77
2021/05/30 00:24:01;;;;;;;13.58;9.48;;;;;;;9.10;83.98;98384.97;1799629;78;20971;-77
2021/05/30 00:26:27;;;;;;;12.47;9.33;;;;;;;9.07;83.94;98381.45;1799350;79;21548;-77
2021/05/30 00:28:53;;;;;;;14.03;9.48;;;;;;;9.03;84.90;98386.55;1799347;78;20958;-77
2021/05/30 00:31:19;;;;;;;16.35;8.95;;;;;;;9.07;85.78;98384.15;1799738;79;21116;-77
2021/05/30 00:33:46;;;;;;;15.58;11.40;;;;;;;9.06;84.29;98385.23;1799345;78;20910;-77
2021/05/30 00:36:13;;;;;;;14.95;10.58;;;;;;;9.03;84.38;98383.03;1773410;79;21440;-77
2021/05/30 00:38:39;;;;;;;15.18;10.48;;;;;;;9.10;84.56;98380.10;1799315;78;20899;-76
2021/05/30 00:41:05;;;;;;;12.07;8.63;;;;;;;9.09;84.07;98383.34;1799371;79;20934;-77
2021/05/30 00:43:46;;;;;;;14.95;10.50;;;;;;;9.11;84.12;98374.97;1799419;78;21007;-77
2021/05/30 00:46:12;;;;;;;15.25;11.20;;;;;;;9.10;83.97;98378.75;1799422;79;20923;-78
2021/05/30 00:48:38;;;;;;;18.07;12.15;;;;;;;9.16;83.88;98373.12;1799227;78;20954;-76
2021/05/30 00:51:05;;;;;;;17.30;11.18;;;;;;;9.19;84.26;98371.77;1799385;79;20930;-76
2021/05/30 00:53:31;;;;;;;16.35;10.58;;;;;;;9.19;84.24;98375.29;1799245;78;21576;-76
2021/05/30 00:55:57;;;;;;;13.95;9.20;;;;;;;9.12;83.62;98367.12;1799238;79;21122;-76
2021/05/30 00:58:24;;;;;;;13.85;10.05;;;;;;;9.10;83.91;98374.70;1799606;78;20879;-76
2021/05/30 01:00:52;;;;;;;15.30;10.00;;;;;;;9.07;85.00;98373.88;1799307;79;21024;-76
2021/05/30 01:03:17;;;;;;;13.10;8.90;;;;;;;9.07;85.87;98371.98;1799686;78;20903;-76
2021/05/30 01:05:47;;;;;;;14.35;10.70;;;;;;;9.11;85.06;98369.56;1799352;79;20883;-76
2021/05/30 01:08:15;;;;;;;15.43;10.43;;;;;;;9.12;84.53;98376.59;1799254;78;21011;-76
2021/05/30 01:10:44;;;;;;;15.43;8.85;;;;;;;9.12;84.18;98373.35;1799190;79;21033;-76
2021/05/30 01:13:10;;;;;;;;;;;;;;;9.13;84.18;98372.81;1801714;78;21380;-77
2021/05/30 01:15:36;;;;;;;9.75;7.35;;;;;;;9.09;83.84;98376.59;1780278;80;20206;-77
2021/05/30 01:18:02;;;;;;;12.28;8.63;;;;;;;9.16;84.00;98373.66;1761867;81;21015;-77
2021/05/30 01:20:27;;;;;;;15.95;9.93;;;;;;;9.24;84.68;98374.52;1780357;80;21775;-77
2021/05/30 01:22:54;;;;;;;14.70;9.75;;;;;;;9.29;84.53;98373.17;1731465;81;21028;-77
2021/05/30 01:25:22;;;;;;;14.50;8.88;;;;;;;9.30;84.61;98368.84;1780403;80;20924;-77
2021/05/30 01:27:49;;;;;;;14.03;9.63;;;;;;;9.32;84.82;98378.89;1762035;81;20830;-77
2021/05/30 01:30:15;;;;;;;13.35;9.13;;;;;;;9.31;85.35;98375.91;1780271;80;21006;-77
2021/05/30 01:32:43;;;;;;;14.60;9.43;;;;;;;9.32;84.22;98376.19;1761770;81;21715;-77
2021/05/30 01:35:11;;;;;;;13.18;9.60;;;;;;;9.25;83.77;98368.03;1780127;80;20845;-77
2021/05/30 01:37:37;;;;;;;12.28;8.93;;;;;;;9.16;83.72;98375.02;1761888;81;20882;-77
2021/05/30 01:40:05;;;;;;;16.12;8.98;;;;;;;9.09;83.86;98371.72;1756318;80;21460;-77
2021/05/30 01:42:31;;;;;;;13.60;9.88;;;;;;;9.08;84.16;98376.31;1762454;81;21349;-77
2021/05/30 01:44:57;;;;;;;12.90;9.33;;;;;;;9.12;84.01;98366.59;1761775;81;21836;-77
2021/05/30 01:47:23;;;;;;;12.15;7.92;;;;;;;9.15;83.87;98366.62;1780285;79;20951;-77
2021/05/30 01:49:48;;;;;;;12.65;8.38;;;;;;;9.15;84.15;98370.68;1711508;81;20953;-76
2021/05/30 01:52:14;;;;;;;13.08;9.00;;;;;;;9.09;84.15;98367.66;1762200;81;20846;-76
2021/05/30 01:54:43;;;;;;;15.78;9.55;;;;;;;9.10;84.74;98372.80;1756347;80;20956;-76
2021/05/30 01:57:09;;;;;;;10.93;6.75;;;;;;;9.15;85.82;98368.79;1761704;81;21062;-77
2021/05/30 01:59:36;;;;;;;11.93;7.78;;;;;;;9.22;85.58;98368.53;1780662;80;20963;-77
2021/05/30 02:02:03;;;;;;;13.18;9.58;;;;;;;9.17;84.79;98370.69;1762140;81;20937;-77
2021/05/30 02:04:39;;;;;;;12.35;8.18;;;;;;;9.09;85.17;98369.83;1780437;80;20816;-77
2021/05/30 02:07:05;;;;;;;16.60;8.68;;;;;;;9.08;85.97;98372.26;1760539;81;21029;-77
2021/05/30 02:09:31;;;;;;;14.00;8.83;;;;;;;9.09;85.72;98364.42;1780371;80;20915;-77
2021/05/30 02:11:58;;;;;;;11.28;8.08;;;;;;;9.10;84.73;98367.39;1762325;81;20878;-76
2021/05/30 02:14:24;;;;;;;10.43;7.60;;;;;;;9.04;84.27;98373.84;1763971;80;20911;-76
2021/05/30 02:16:50;;;;;;;10.75;8.45;;;;;;;9.00;85.29;98369.50;1788341;80;21490;-76
2021/05/30 02:19:16;;;;;;;11.95;8.08;;;;;;;9.01;85.52;98366.27;1788321;78;20875;-76
2021/05/30 02:21:44;;;;;;;12.28;7.50;;;;;;;9.05;86.64;98367.36;1788217;80;21006;-76
2021/05/30 02:24:11;;;;;;;13.33;8.83;;;;;;;9.10;86.49;98363.88;1788856;78;21168;-76
2021/05/30 02:26:37;;;;;;;13.45;8.95;;;;;;;9.10;86.72;98359.83;1788270;80;21298;-77
2021/05/30 02:29:04;;;;;;;10.10;8.00;;;;;;;9.16;86.07;98365.01;1788324;78;20907;-77
2021/05/30 02:31:30;;;;;;;12.85;9.55;;;;;;;9.17;85.58;98372.04;1788231;80;20998;-77
2021/05/30 02:33:56;;;;;;;12.07;8.33;;;;;;;9.21;85.41;98370.42;1788394;78;21269;-77
2021/05/30 02:36:23;;;;;;;14.58;11.28;;;;;;;9.32;85.19;98367.26;1788298;80;20943;-77
2021/05/30 02:38:49;;;;;;;16.50;12.28;;;;;;;9.31;84.84;98365.61;1788313;78;21375;-77
2021/05/30 02:41:15;;;;;;;14.45;11.25;;;;;;;9.29;85.39;98369.12;1788182;80;21010;-77
2021/05/30 02:43:41;;;;;;;12.50;9.13;;;;;;;9.30;86.48;98375.61;1788388;78;20924;-77
2021/05/30 02:46:07;;;;;;;17.90;10.70;;;;;;;9.28;87.06;98371.55;1788301;80;20897;-77
2021/05/30 02:48:35;;;;;;;15.08;10.35;;;;;;;9.27;86.25;98369.38;1788391;78;21469;-77
2021/05/30 02:51:02;;;;;;;10.53;8.20;;;;;;;9.27;85.77;98369.38;1788365;80;20951;-77
2021/05/30 02:53:32;;;;;;;15.08;9.55;;;;;;;9.25;86.39;98368.84;1788204;78;20952;-77
2021/05/30 02:55:58;;;;;;;14.53;9.58;;;;;;;9.24;85.69;98367.22;1788420;80;20859;-77
2021/05/30 02:58:26;;;;;;;13.25;9.78;;;;;;;9.21;85.33;98364.20;1788326;78;21520;-76
2021/05/30 03:00:52;;;;;;;13.40;9.95;;;;;;;9.19;85.42;98365.02;1788148;80;20951;-76
2021/05/30 03:03:18;;;;;;;14.85;10.58;;;;;;;9.25;85.42;98362.08;1788415;78;21363;-76
2021/05/30 03:05:44;;;;;;;16.12;10.45;;;;;;;9.36;85.36;98362.94;1788383;80;20848;-76
2021/05/30 03:08:10;;;;;;;16.10;9.13;;;;;;;9.45;85.34;98368.12;1788214;78;20961;-76
2021/05/30 03:10:36;;;;;;;16.17;9.93;;;;;;;9.54;85.21;98371.13;1788517;80;21077;-76
2021/05/30 03:13:02;;;;;;;13.43;8.80;;;;;;;9.59;85.93;98368.45;1762853;80;20895;-76
2021/05/30 03:15:28;;;;;;;11.97;8.73;;;;;;;9.60;85.71;98376.84;1785451;80;20876;-76
2021/05/30 03:17:54;;;;;;;11.83;8.68;;;;;;;9.49;85.15;98381.41;1761137;80;21055;-76
2021/05/30 03:20:20;;;;;;;12.75;9.10;;;;;;;9.41;85.00;98375.69;1785541;80;20963;-76
2021/05/30 03:22:46;;;;;;;13.32;9.63;;;;;;;9.34;84.86;98377.27;1785523;79;21661;-76
2021/05/30 03:25:12;;;;;;;12.95;10.25;;;;;;;9.28;84.80;98379.66;1785383;80;20967;-76
2021/05/30 03:27:38;;;;;;;13.22;9.33;;;;;;;9.26;84.83;98375.06;1785397;79;20919;-76
2021/05/30 03:30:06;;;;;;;14.45;10.03;;;;;;;9.26;84.64;98376.41;1785532;80;20927;-76
2021/05/30 03:32:32;;;;;;;13.80;9.43;;;;;;;9.27;85.18;98373.98;1761322;80;21422;-76
2021/05/30 03:34:58;;;;;;;13.48;9.68;;;;;;;9.33;84.65;98378.34;1785426;80;21095;-76
2021/05/30 03:37:24;;;;;;;11.60;8.95;;;;;;;9.37;84.69;98383.49;1761286;79;20848;-76
2021/05/30 03:39:54;;;;;;;14.58;9.48;;;;;;;9.42;84.82;98382.18;1785612;80;20939;-76
2021/05/30 03:42:22;;;;;;;13.40;9.70;;;;;;;9.44;85.83;98384.61;1785154;79;20995;-77
2021/05/30 03:44:48;;;;;;;15.05;11.12;;;;;;;9.54;85.11;98388.72;1785437;80;20959;-76
2021/05/30 03:47:14;;;;;;;14.43;10.45;;;;;;;9.69;85.08;98389.33;1786030;79;21052;-76
2021/05/30 03:49:40;;;;;;;14.73;9.73;;;;;;;9.81;84.96;98386.65;1785473;80;20970;-76
2021/05/30 03:52:10;;;;;;;14.20;9.80;;;;;;;9.94;84.79;98388.60;1785890;79;20951;-76
2021/05/30 03:54:36;;;;;;;12.45;9.80;;;;;;;10.00;84.45;98395.64;1785338;80;20951;-76
2021/05/30 03:57:03;;;;;;;12.73;9.43;;;;;;;10.02;84.44;98390.79;1785499;79;20942;-76
2021/05/30 03:59:29;;;;;;;12.58;9.80;;;;;;;10.07;84.64;98396.20;1785669;80;21545;-76
2021/05/30 04:01:55;;;;;;;15.55;11.08;;;;;;;10.05;84.13;98395.13;1785629;80;20971;-76
2021/05/30 04:04:21;;;;;;;12.55;10.15;;;;;;;10.08;83.97;98393.77;1785665;79;20947;-76
2021/05/30 04:06:47;;;;;;;16.75;12.15;;;;;;;10.11;83.92;98400.83;1785650;80;20903;-76
2021/05/30 04:09:13;;;;;;;15.10;11.78;;;;;;;10.07;83.89;98402.43;1761208;80;20943;-76
2021/05/30 04:11:39;;;;;;;15.03;11.57;;;;;;;10.08;83.78;98405.95;1785566;80;21123;-76
2021/05/30 04:14:05;;;;;;;16.52;10.98;;;;;;;10.12;83.62;98404.34;1784978;79;20864;-76
2021/05/30 04:16:31;;;;;;;14.93;10.63;;;;;;;10.19;83.63;98400.84;1784769;80;20939;-76
2021/05/30 04:18:57;;;;;;;13.72;10.70;;;;;;;10.27;83.56;98409.84;1784840;79;20980;-76
2021/05/30 04:21:23;;;;;;;14.87;10.50;;;;;;;10.30;83.37;98412.00;1784729;80;21015;-76
2021/05/30 04:23:49;;;;;;;15.30;11.33;;;;;;;10.39;83.41;98418.52;1784700;79;21167;-76
2021/05/30 04:26:15;;;;;;;13.95;10.15;;;;;;;10.46;83.33;98416.91;1784746;80;20915;-76
2021/05/30 04:28:42;;;;;;;15.95;10.23;;;;;;;10.43;82.95;98413.39;1784890;79;21010;-76
2021/05/30 04:31:08;;;;;;;16.07;11.12;;;;;;;10.34;82.90;98415.81;1784696;80;20840;-76
2021/05/30 04:33:34;;;;;;;16.67;12.65;;;;;;;10.22;82.73;98417.94;1785044;79;20912;-76
2021/05/30 04:36:00;;;;;;;17.80;12.10;;;;;;;10.09;83.23;98415.73;1784717;80;21059;-76
2021/05/30 04:38:25;;;;;;;16.80;13.03;;;;;;;10.06;83.09;98416.23;1784865;79;20820;-76
2021/05/30 04:40:51;;;;;;;17.48;12.95;;;;;;;10.12;82.87;98413.28;1784891;80;20927;-76
2021/05/30 04:43:17;;;;;;;17.82;13.62;;;;;;;10.20;82.95;98418.72;1785065;79;20847;-76
2021/05/30 04:45:43;;;;;;;18.65;12.33;;;;;;;10.16;83.39;98414.36;1784858;80;21513;-76
2021/05/30 04:48:09;;;;;;;18.95;13.93;;;;;;;10.21;82.96;98413.58;1756338;80;21683;-76
2021/05/30 04:50:35;;;;;;;20.90;13.58;;;;;;;10.21;83.21;98419.53;1784660;80;21375;-76
2021/05/30 04:53:02;;;;;;;18.77;13.18;;;;;;;10.18;83.36;98424.41;1784803;79;20896;-76
2021/05/30 04:55:28;;;;;;;21.37;15.45;;;;;;;10.17;83.61;98423.33;1784802;80;20948;-76
2021/05/30 04:57:54;;;;;;;21.23;14.47;;;;;;;10.04;84.08;98410.28;1784907;79;20951;-76
2021/05/30 05:00:20;;;;;;;21.20;15.20;;;;;;;10.14;83.57;98424.66;1784793;80;21245;-76
2021/05/30 05:02:46;;;;;;;26.70;14.83;;;;;;;10.14;83.95;98423.30;1784807;79;20923;-76
2021/05/30 05:05:12;;;;;;;20.30;14.15;;;;;;;10.23;83.55;98418.75;1784796;80;21501;-76
2021/05/30 05:07:40;;;;;;;21.17;14.65;;;;;;;10.31;83.39;98418.23;1785035;79;20899;-76
2021/05/30 05:10:08;;;;;;;20.43;15.25;;;;;;;10.29;83.29;98410.92;1784683;80;21046;-76
2021/05/30 05:12:35;;;;;;;21.65;16.10;;;;;;;10.38;83.27;98410.66;1784662;79;21639;-76
2021/05/30 05:15:01;;;;;;;24.18;15.45;;;;;;;10.71;82.77;98407.44;1777768;78;21014;-76
2021/05/30 05:17:27;;;;;;;23.15;14.83;;;;;;;10.71;82.77;98407.44;1777486;79;20945;-76
2021/05/30 05:19:53;;;;;;;21.27;16.20;;;;;;;10.86;82.24;98415.31;1777685;80;20967;-76
2021/05/30 05:22:19;;;;;;;23.35;15.90;;;;;;;10.74;81.68;98425.05;1753571;79;21537;-76
2021/05/30 05:24:45;;;;;;;22.80;16.27;;;;;;;10.69;81.87;98422.36;1753609;80;21022;-76
2021/05/30 05:27:11;;;;;;;26.42;18.00;;;;;;;10.65;80.93;98423.96;1777615;79;20872;-76
2021/05/30 05:29:37;;;;;;;31.75;18.05;;;;;;;10.85;81.33;98428.56;1777687;80;21031;-76
2021/05/30 05:32:04;;;;;;;25.37;18.52;;;;;;;11.09;81.21;98420.69;1777750;79;21436;-77
2021/05/30 05:34:30;;;;;;;27.10;18.87;;;;;;;11.28;81.16;98421.23;1777932;80;21010;-77
2021/05/30 05:36:56;;;;;;;26.77;18.32;;;;;;;11.35;80.53;98422.27;1753592;80;21119;-77
2021/05/30 05:39:24;;;;;;;28.80;18.25;;;;;;;11.46;80.19;98419.83;1777943;79;21006;-77
2021/05/30 05:41:52;;;;;;;26.48;17.95;;;;;;;11.60;79.87;98429.54;1777899;80;20892;-77
2021/05/30 05:44:18;;;;;;;24.75;18.48;;;;;;;11.46;78.92;98430.69;1777498;79;20828;-77
2021/05/30 05:46:44;;;;;;;25.82;18.75;;;;;;;11.40;79.39;98435.84;1777833;80;20900;-77
2021/05/30 05:49:10;;;;;;;23.98;17.20;;;;;;;11.27;79.47;98435.05;1777551;79;21041;-77
2021/05/30 05:51:36;;;;;;;22.48;17.42;;;;;;;11.32;79.61;98438.30;1777378;80;20852;-77
2021/05/30 05:54:02;;;;;;;23.22;16.55;;;;;;;11.36;79.79;98439.36;1777580;79;20849;-77
2021/05/30 05:56:28;;;;;;;29.00;16.35;;;;;;;11.46;79.05;98440.18;1777671;80;20860;-77
2021/05/30 05:58:54;;;;;;;23.20;16.45;;;;;;;11.66;78.75;98439.30;1777609;79;20995;-77
2021/05/30 06:01:19;;;;;;;22.35;17.45;;;;;;;11.67;78.40;98444.19;1777580;80;21543;-77
2021/05/30 06:03:46;;;;;;;22.40;18.15;;;;;;;11.62;77.92;98446.91;1777502;79;20920;-77
2021/05/30 06:06:12;;;;;;;23.18;16.87;;;;;;;11.58;78.46;98453.44;1777535;80;20919;-77
2021/05/30 06:08:38;;;;;;;23.38;17.40;;;;;;;11.38;78.18;98451.59;1777895;79;20864;-77
2021/05/30 06:11:04;;;;;;;22.45;17.15;;;;;;;11.37;78.37;98450.52;1753505;80;21467;-77
2021/05/30 06:13:30;;;;;;;20.90;15.70;;;;;;;11.29;78.77;98452.69;1777455;79;21438;-77
2021/05/30 06:15:56;;;;;;;22.90;17.98;;;;;;;11.30;79.01;98455.67;1777493;80;20864;-78
2021/05/30 06:18:23;;;;;;;20.55;15.65;;;;;;;11.31;78.55;98455.13;1777496;79;20928;-78
2021/05/30 06:20:49;;;;;;;20.17;15.10;;;;;;;11.24;77.92;98453.23;1777510;80;20920;-78
2021/05/30 06:23:15;;;;;;;22.15;16.32;;;;;;;11.29;78.33;98455.41;1753484;80;20884;-75
2021/05/30 06:25:42;;;;;;;19.95;15.18;;;;;;;11.15;77.75;98464.36;1777662;80;21088;-75
2021/05/30 06:28:08;;;;;;;17.50;14.18;;;;;;;11.32;77.68;98460.81;1777499;79;20872;-75
2021/05/30 06:30:37;;;;;;;20.65;14.28;;;;;;;11.49;77.61;98467.30;1777444;80;20884;-75
2021/05/30 06:33:04;;;;;;;16.80;12.87;;;;;;;11.41;76.97;98464.59;1777601;79;20971;-77
2021/05/30 06:35:31;;;;;;;17.27;13.72;;;;;;;11.38;76.05;98471.94;1777574;80;21019;-77
2021/05/30 06:37:57;;;;;;;18.30;15.75;;;;;;;11.36;76.29;98472.73;1777922;79;21005;-77
2021/05/30 06:40:24;;;;;;;20.15;14.98;;;;;;;11.55;75.84;98473.00;1777561;80;21472;-77
2021/05/30 06:42:51;;;;;;;19.23;14.53;;;;;;;11.67;75.59;98477.57;1777619;79;20868;-77
2021/05/30 06:45:17;;;;;;;21.30;15.85;;;;;;;11.69;75.93;98477.29;1777608;80;21007;-77
2021/05/30 06:47:43;;;;;;;18.57;14.83;;;;;;;11.70;76.54;98487.87;1777483;79;20958;-77
2021/05/30 06:50:10;;;;;;;20.12;15.50;;;;;;;11.66;76.14;98487.35;1753509;80;20957;-77
2021/05/30 06:52:36;;;;;;;16.77;12.68;;;;;;;11.59;76.23;98486.27;1777276;79;20852;-77
2021/05/30 06:55:02;;;;;;;20.35;14.87;;;;;;;11.63;76.15;98490.63;1777698;80;20959;-77
2021/05/30 06:57:28;;;;;;;18.35;13.75;;;;;;;11.75;75.85;98480.27;1777594;79;20972;-77
2021/05/30 06:59:54;;;;;;;18.02;14.43;;;;;;;11.98;76.22;98478.88;1778092;80;21466;-77
2021/05/30 07:02:20;;;;;;;18.40;14.07;;;;;;;12.18;75.40;98485.57;1777522;79;21728;-77
2021/05/30 07:04:46;;;;;;;16.85;13.45;;;;;;;12.34;74.20;98480.88;1753332;80;20900;-77
2021/05/30 07:07:12;;;;;;;17.67;14.63;;;;;;;12.37;72.77;98488.46;1751955;79;20980;-77
2021/05/30 07:09:38;;;;;;;16.45;14.40;;;;;;;12.48;73.64;98487.88;1777437;80;20873;-77
2021/05/30 07:12:05;;;;;;;16.82;13.35;;;;;;;12.70;73.41;98496.43;1777637;79;20888;-77
2021/05/30 07:14:32;;;;;;;18.37;14.23;;;;;;;12.92;72.30;98491.39;1780867;80;20995;-77
2021/05/30 07:16:58;;;;;;;21.60;14.05;;;;;;;12.84;72.01;98493.91;1784618;80;20955;-77
2021/05/30 07:19:24;;;;;;;17.62;13.08;;;;;;;12.73;72.07;98494.50;1784715;79;20844;-77
2021/05/30 07:21:50;;;;;;;17.12;12.95;;;;;;;12.93;72.78;98490.84;1784640;80;21073;-76
2021/05/30 07:24:16;;;;;;;16.17;12.65;;;;;;;12.97;71.78;98491.89;1784651;79;20935;-76
2021/05/30 07:26:42;;;;;;;16.30;13.50;;;;;;;12.96;71.02;98487.00;1785079;80;21442;-76
2021/05/30 07:29:08;;;;;;;16.95;13.98;;;;;;;13.35;71.76;98493.53;1756244;80;20951;-76
2021/05/30 07:31:35;;;;;;;14.35;11.22;;;;;;;14.18;71.07;98499.16;1784684;80;20880;-77
2021/05/30 07:34:01;;;;;;;13.98;11.83;;;;;;;14.57;63.58;98500.33;1756269;80;21079;-77
2021/05/30 07:36:28;;;;;;;16.75;13.38;;;;;;;14.84;66.07;98495.58;1756382;80;20912;-77
2021/05/30 07:38:56;;;;;;;17.77;12.30;;;;;;;14.72;64.04;98496.03;1784747;79;21127;-77
2021/05/30 07:41:22;;;;;;;17.12;13.03;;;;;;;14.26;65.71;98492.52;1783887;80;20987;-77
2021/05/30 07:43:49;;;;;;;18.05;13.35;;;;;;;13.81;66.27;98494.69;1785084;79;20916;-76
2021/05/30 07:46:15;;;;;;;14.75;12.47;;;;;;;13.55;67.42;98499.58;1731581;80;20915;-77
2021/05/30 07:48:41;;;;;;;15.93;13.32;;;;;;;13.18;67.78;98495.28;1784758;79;21514;-77
2021/05/30 07:51:07;;;;;;;15.38;13.30;;;;;;;13.31;68.83;98493.27;1751541;80;21028;-76
2021/05/30 07:53:33;;;;;;;15.78;12.25;;;;;;;13.76;68.05;98492.03;1784665;79;20864;-76
2021/05/30 07:56:00;;;;;;;15.28;11.97;;;;;;;14.25;68.09;98492.26;1785217;80;20872;-76
2021/05/30 07:58:26;;;;;;;13.68;9.95;;;;;;;14.20;64.83;98495.06;1784853;79;21423;-76
2021/05/30 08:00:52;;;;;;;12.53;10.28;;;;;;;14.45;63.36;98490.39;1784749;80;20966;-76
2021/05/30 08:03:18;;;;;;;12.18;10.03;;;;;;;14.37;63.31;98488.58;1785273;79;21001;-76
2021/05/30 08:05:44;;;;;;;11.53;9.85;;;;;;;14.38;64.20;98486.66;1784676;80;21479;-76
2021/05/30 08:08:10;;;;;;;13.58;10.85;;;;;;;14.45;64.62;98483.05;1784729;79;20927;-76
2021/05/30 08:10:36;;;;;;;13.03;10.43;;;;;;;14.33;64.58;98485.34;1756525;80;20876;-77
2021/05/30 08:13:02;;;;;;;14.83;11.38;;;;;;;14.40;65.68;98487.98;1784698;79;20966;-76
2021/05/30 08:15:28;;;;;;;14.93;10.65;;;;;;;14.24;63.27;98486.55;1779342;78;21123;-76
2021/05/30 08:17:55;;;;;;;15.25;11.93;;;;;;;13.98;64.65;98493.41;1777599;79;20963;-76
2021/05/30 08:20:23;;;;;;;13.18;11.30;;;;;;;13.88;64.87;98496.27;1777831;80;21546;-76
2021/05/30 08:22:49;;;;;;;16.13;13.03;;;;;;;14.33;64.24;98496.25;1777974;79;20972;-76
2021/05/30 08:25:15;;;;;;;15.60;13.53;;;;;;;14.33;64.24;98496.25;1777754;80;20991;-76
2021/05/30 08:27:41;;;;;;;16.90;12.23;;;;;;;14.02;64.91;98502.65;1777601;79;21499;-76
2021/05/30 08:30:09;;;;;;;16.82;13.25;;;;;;;13.88;65.65;98510.69;1777563;80;20951;-76
2021/05/30 08:32:35;;;;;;;16.40;13.22;;;;;;;13.73;66.69;98508.94;1777463;79;20963;-76
2021/05/30 08:35:01;;;;;;;19.23;15.35;;;;;;;13.51;66.99;98514.08;1777782;80;20943;-76
2021/05/30 08:37:27;;;;;;;16.35;12.85;;;;;;;13.45;67.69;98511.12;1777553;79;20920;-76
2021/05/30 08:39:52;;;;;;;17.77;12.30;;;;;;;13.60;68.28;98512.34;1777654;80;20985;-76
2021/05/30 08:42:20;;;;;;;16.37;13.38;;;;;;;13.47;69.07;98514.36;1753438;79;20864;-76
2021/05/30 08:44:47;;;;;;;15.95;11.97;;;;;;;13.45;69.75;98522.02;1777475;80;20988;-76
2021/05/30 08:47:13;;;;;;;16.10;12.15;;;;;;;13.43;69.67;98518.77;1777677;79;20916;-76
2021/05/30 08:49:40;;;;;;;17.12;12.55;;;;;;;13.31;70.88;98520.48;1777721;80;21030;-76
2021/05/30 08:52:08;;;;;;;15.95;11.48;;;;;;;13.12;72.46;98526.33;1777584;79;21560;-76
2021/05/30 08:54:34;;;;;;;15.20;13.17;;;;;;;12.96;72.05;98521.55;1777682;80;20877;-76
2021/05/30 08:57:00;;;;;;;15.95;10.32;;;;;;;12.98;71.01;98518.80;1777533;80;20915;-77
2021/05/30 08:59:29;;;;;;;14.60;11.15;;;;;;;12.75;71.43;98522.24;1777611;79;20895;-77
2021/05/30 09:02:03;;;;;;;13.48;10.05;;;;;;;12.76;71.17;98510.27;1777484;80;20932;-77
2021/05/30 09:04:34;;;;;;;15.60;11.63;;;;;;;12.77;72.57;98516.52;1777974;80;20995;-77
2021/05/30 09:07:01;;;;;;;15.48;11.38;;;;;;;12.72;72.90;98528.22;1777398;80;21067;-76
2021/05/30 09:09:36;;;;;;;14.18;10.82;;;;;;;12.69;73.07;98525.53;1753878;80;21031;-76
2021/05/30 09:12:03;;;;;;;15.38;11.83;;;;;;;12.57;75.02;98522.90;1753667;79;20967;-77
2021/05/30 09:14:31;;;;;;;18.15;14.23;;;;;;;12.49;74.35;98518.05;1777699;78;21385;-77
2021/05/30 09:17:07;;;;;;;15.95;12.80;;;;;;;12.42;74.74;98519.16;1777632;80;21194;-77
2021/05/30 09:19:37;;;;;;;16.37;12.88;;;;;;;12.33;74.51;98511.87;1775661;80;21000;-76
2021/05/30 09:22:32;;;;;;;17.60;13.98;;;;;;;12.15;76.32;98516.02;1753987;79;21015;-77
2021/05/30 09:25:08;;;;;;;17.42;13.83;;;;;;;12.11;75.72;98519.01;1753709;80;21452;-78
2021/05/30 09:27:45;;;;;;;17.95;13.75;;;;;;;11.97;76.88;98520.70;1755654;79;20856;-77
2021/05/30 09:30:38;;;;;;;19.50;14.35;;;;;;;11.91;76.25;98519.09;1777504;80;21609;-77
2021/05/30 09:33:15;;;;;;;17.00;13.43;;;;;;;11.94;77.32;98520.69;1777491;79;21071;-77
2021/05/30 09:35:47;;;;;;;24.82;12.95;;;;;;;12.05;76.83;98520.95;1777878;80;20943;-76
2021/05/30 09:38:33;;;;;;;17.62;14.07;;;;;;;12.17;77.95;98527.96;1777589;79;20939;-77
2021/05/30 09:41:05;;;;;;;20.50;14.33;;;;;;;12.29;78.34;98525.73;1777637;80;21022;-76
2021/05/30 09:43:37;;;;;;;14.95;12.93;;;;;;;12.19;77.81;98533.92;1777523;79;21186;-76
2021/05/30 09:46:11;;;;;;;15.30;12.63;;;;;;;12.34;76.72;98532.51;1777561;80;21039;-77
2021/05/30 09:48:45;;;;;;;20.75;16.67;;;;;;;12.55;77.30;98535.94;1777485;79;20848;-76
2021/05/30 09:51:38;;;;;;;18.60;15.72;;;;;;;12.82;76.31;98536.86;1753485;80;20944;-77
2021/05/30 09:54:16;;;;;;;14.38;12.70;;;;;;;13.16;75.33;98533.66;1777398;79;20992;-77
2021/05/30 09:56:53;;;;;;;18.30;13.72;;;;;;;13.44;74.01;98531.28;1777746;80;21104;-77
2021/05/30 09:59:21;;;;;;;17.80;13.75;;;;;;;13.32;73.45;98531.63;1777964;79;20904;-77
2021/05/30 10:01:59;;;;;;;17.73;14.58;;;;;;;13.30;73.14;98533.02;1777782;80;20900;-77
2021/05/30 10:04:33;;;;;;;13.90;11.35;;;;;;;13.13;73.62;98528.77;1777888;79;21031;-77
2021/05/30 10:07:00;;;;;;;12.15;9.83;;;;;;;13.14;73.55;98528.22;1777487;80;20980;-77
2021/05/30 10:09:27;;;;;;;12.00;9.95;;;;;;;12.89;73.56;98532.73;1777825;79;20949;-77
2021/05/30 10:11:55;;;;;;;12.18;9.08;;;;;;;12.89;73.54;98527.84;1753386;80;21062;-77
2021/05/30 10:14:21;;;;;;;13.33;9.03;;;;;;;12.68;73.82;98538.86;1777834;79;20900;-77
2021/05/30 10:16:47;;;;;;;10.65;6.78;;;;;;;12.37;74.62;98539.55;1784853;80;20868;-77
2021/05/30 10:19:20;;;;;;;9.18;7.15;;;;;;;12.01;75.46;98547.02;1784793;79;20892;-77
2021/05/30 10:21:54;;;;;;;8.15;6.45;;;;;;;11.83;76.04;98551.14;1784642;80;20999;-76
2021/05/30 10:24:21;;;;;;;8.38;7.40;;;;;;;11.60;77.80;98563.89;1784957;79;20982;-77
2021/05/30 10:27:16;;;;;;;10.55;6.72;;;;;;;11.51;77.84;98579.10;1756925;80;20975;-77
2021/05/30 10:30:15;;;;;;;8.13;6.67;;;;;;;11.32;78.65;98573.41;1784758;80;21438;-76
2021/05/30 10:32:47;;;;;;;8.80;6.70;;;;;;;11.17;79.48;98572.84;1785175;79;21019;-77
2021/05/30 10:35:22;;;;;;;7.83;6.20;;;;;;;11.15;80.47;98568.24;1756057;80;21161;-78
2021/05/30 10:37:51;;;;;;;8.25;6.03;;;;;;;11.13;78.73;98567.70;1784544;79;20940;-77
2021/05/30 10:40:35;;;;;;;7.37;6.00;;;;;;;10.96;82.02;98569.31;1784426;80;21011;-78
2021/05/30 10:43:14;;;;;;;7.37;5.50;;;;;;;10.95;81.31;98572.30;1781885;79;20924;-77
2021/05/30 10:45:51;;;;;;;7.00;5.53;;;;;;;10.95;82.69;98579.08;1784738;80;20915;-77
2021/05/30 10:48:18;;;;;;;6.15;4.80;;;;;;;11.08;82.10;98573.66;1756112;80;21065;-78
2021/05/30 10:53:44;;;;;;;8.90;5.72;;;;;;;11.48;80.28;98571.52;1784601;79;21423;-78
2021/05/30 10:56:24;;;;;;;7.37;5.47;;;;;;;11.80;80.31;98575.33;1756265;80;21058;-78
2021/05/30 10:59:07;;;;;;;8.08;4.78;;;;;;;12.19;79.40;98572.77;1784651;79;20936;-77
2021/05/30 11:01:41;;;;;;;9.15;6.40;;;;;;;12.69;78.64;98570.94;1763510;80;21438;-76
2021/05/30 11:04:29;;;;;;;8.43;6.83;;;;;;;13.17;77.55;98572.02;1784548;79;21451;-77
2021/05/30 11:07:22;;;;;;;8.45;7.05;;;;;;;13.78;76.45;98574.26;1784832;80;21185;-77
2021/05/30 11:10:02;;;;;;;10.80;6.65;;;;;;;14.51;74.52;98569.11;1781988;80;20975;-77
2021/05/30 11:12:48;;;;;;;8.73;6.50;;;;;;;15.79;68.32;98568.04;1784727;79;20927;-77
2021/05/30 11:15:21;;;;;;;13.70;12.05;;;;;;;16.92;65.70;98563.38;1783327;80;21002;-77
2021/05/30 11:17:49;;;;;;;4.87;4.37;;;;;;;19.63;59.03;98558.36;1780101;79;20875;-77
2021/05/30 11:20:29;;;;;;;6.33;5.05;;;;;;;20.94;56.62;98555.34;1780327;80;21019;-77
2021/05/30 11:23:00;;;;;;;4.70;4.12;;;;;;;20.79;53.96;98558.68;1780166;79;20960;-77
2021/05/30 11:25:46;;;;;;;5.00;4.45;;;;;;;22.45;45.96;98554.04;1780094;80;21019;-77
2021/05/30 11:28:15;;;;;;;4.03;3.25;;;;;;;21.13;51.49;98562.57;1779596;79;21122;-77
2021/05/30 11:30:50;;;;;;;3.33;2.67;;;;;;;21.06;53.62;98562.87;1780118;80;20939;-77
2021/05/30 11:33:27;;;;;;;3.45;3.00;;;;;;;20.51;51.37;98552.86;1780242;79;20932;-76